Airfield :
LOGIN :

Register | Disclaimer

   EN    FR    IT 

 










Legend :    VFR   Marginal VFR   IFR   Intensive IFR   Very Intensive IFR
Visi :
Ceiling :
>= 8 km
>= 3000ft
5 to 8 km
1000 to 3000 ft
1500m to 5 km
500 to 1000 ft
800 to 1500m
200 to 500 ft
< 800m
< 200 ft
Symbols :   Thunderstorms  Fog  Heavy snow  Heavy precipitations  Wind > 20 kt
SIGMETs :     Misc.  Thunderstorms  Icing  Turbulence  Mountain Waves  Volcanic Ashes







- Airport Elevation : 614 ft
- IATA code : CRL


EBCI - Charleroi

CURRENT METAR :
  • 160020Z 18002KT CAVOK 14/09 Q1022 NOSIG

EXPIRED METARs :
  • 152350Z VRB01KT CAVOK 14/09 Q1022 NOSIG
  • 152320Z 10003KT CAVOK 14/10 Q1023 NOSIG
  • 152250Z 13004KT CAVOK 15/09 Q1023 NOSIG
  • 152220Z 14003KT CAVOK 14/09 Q1023 NOSIG
  • 152150Z 13002KT CAVOK 14/09 Q1023 NOSIG

TAF TAF EBCI
Valid from the 16 at 00:00 until the 17 at 06:00 UTC


152303Z 1600/1706 VRB03KT CAVOK
TEMPO 1615/1620 4000 -RA SCT006 BKN009
No reported NOTAMs for that airfield.



MET'MAP, your aeronautical weather chart ! - Copyright ORBIFLY December 2007 - Disclaimer

ORBIFLY MET'MAP TEAM :

Programming & Development : Alexandra Zaïnal
Concept & Development : Baudouin d'Aumeries
Co-Development & Prog : Marc-Olivier Méhu
Technical & hardware support : Manuel Goepfert

Contact : metmap@orbifly.com




SOURCES & CREDITS :

   NOAA